createdAt,value
2023-03-20T00:01:41.303Z,11.19
2023-03-20T00:04:10.736Z,11.22
2023-03-20T00:06:38.049Z,11.18
2023-03-20T00:09:06.956Z,11.13
2023-03-20T00:11:36.223Z,11.12
2023-03-20T00:14:05.939Z,11.15
2023-03-20T00:16:34.682Z,10.89
2023-03-20T00:19:03.871Z,11.06
2023-03-20T00:21:31.470Z,10.95
2023-03-20T00:23:58.803Z,11.01
2023-03-20T00:26:29.747Z,10.99
2023-03-20T00:28:57.747Z,10.99
2023-03-20T00:31:26.594Z,10.66
2023-03-20T00:33:54.536Z,10.99
2023-03-20T00:36:23.199Z,10.76
2023-03-20T00:38:50.464Z,10.90
2023-03-20T00:41:26.356Z,10.78
2023-03-20T00:43:55.339Z,10.83
2023-03-20T00:46:22.731Z,10.90
2023-03-20T00:48:50.699Z,10.85
2023-03-20T00:51:18.278Z,10.79
2023-03-20T00:53:46.904Z,10.73
2023-03-20T00:56:29.795Z,10.74
2023-03-20T00:58:57.781Z,10.54
2023-03-20T01:01:25.089Z,10.56
2023-03-20T01:03:52.615Z,10.49
2023-03-20T01:06:19.890Z,10.60
2023-03-20T01:08:48.805Z,10.57
2023-03-20T01:11:17.816Z,10.63
2023-03-20T01:13:45.222Z,10.57
2023-03-20T01:16:19.981Z,10.64
2023-03-20T01:18:47.305Z,10.80
2023-03-20T01:21:14.616Z,10.76
2023-03-20T01:23:42.604Z,10.76
2023-03-20T01:26:19.903Z,10.74
2023-03-20T01:28:47.524Z,10.62
2023-03-20T01:31:15.200Z,10.75
2023-03-20T01:33:42.521Z,10.72
2023-03-20T01:36:11.719Z,10.71
2023-03-20T01:38:39.352Z,10.58
2023-03-20T01:41:08.475Z,10.61
2023-03-20T01:43:37.084Z,10.63
2023-03-20T01:46:14.486Z,10.78
2023-03-20T01:48:57.757Z,10.72
2023-03-20T01:51:25.963Z,10.73
2023-03-20T01:53:55.211Z,10.80
2023-03-20T01:56:22.506Z,10.72
2023-03-20T01:58:54.451Z,10.71
2023-03-20T02:01:21.750Z,10.68
2023-03-20T02:03:51.820Z,10.58
2023-03-20T02:06:21.882Z,10.46
2023-03-20T02:08:50.263Z,10.42
2023-03-20T02:11:18.734Z,10.55
2023-03-20T02:13:47.160Z,10.54
2023-03-20T02:16:16.385Z,10.59
2023-03-20T02:18:44.767Z,10.23
2023-03-20T02:21:24.375Z,10.43
2023-03-20T02:24:27.441Z,10.56
2023-03-20T02:27:03.757Z,10.56
2023-03-20T02:29:50.641Z,10.34
2023-03-20T02:32:32.832Z,10.44
2023-03-20T02:35:13.980Z,10.41
2023-03-20T02:37:50.527Z,10.42
2023-03-20T02:40:22.589Z,10.39
2023-03-20T02:42:55.104Z,10.38
2023-03-20T02:45:27.075Z,10.48
2023-03-20T02:47:57.371Z,10.41
2023-03-20T02:50:29.722Z,10.54
2023-03-20T02:53:00.196Z,10.57
2023-03-20T02:55:32.855Z,10.60
2023-03-20T02:58:04.182Z,10.51
2023-03-20T03:00:35.556Z,10.54
2023-03-20T03:03:06.881Z,10.49
2023-03-20T03:05:37.849Z,10.58
2023-03-20T03:08:07.857Z,10.60
2023-03-20T03:10:37.317Z,10.46
2023-03-20T03:13:06.776Z,10.48
2023-03-20T03:15:36.309Z,10.40
2023-03-20T03:18:06.403Z,10.33
2023-03-20T03:20:35.952Z,10.37
2023-03-20T03:23:03.478Z,10.38
2023-03-20T03:25:34.653Z,10.36
2023-03-20T03:28:04.902Z,10.29
2023-03-20T03:30:34.067Z,10.31
2023-03-20T03:33:08.211Z,10.27
2023-03-20T03:35:36.079Z,10.07
2023-03-20T03:38:06.639Z,10.21
2023-03-20T03:40:38.169Z,10.15
2023-03-20T03:43:08.725Z,10.19
2023-03-20T03:45:39.094Z,10.21
2023-03-20T03:48:08.462Z,10.24
2023-03-20T03:50:38.689Z,10.19
2023-03-20T03:53:08.951Z,10.17
2023-03-20T03:55:40.582Z,10.18
2023-03-20T03:58:10.595Z,10.31
2023-03-20T04:00:38.880Z,10.13
2023-03-20T04:03:07.226Z,10.22
2023-03-20T04:05:37.435Z,10.21
2023-03-20T04:08:05.640Z,10.18
2023-03-20T04:10:32.938Z,10.16
2023-03-20T04:13:01.646Z,10.20
2023-03-20T04:15:29.018Z,10.24
2023-03-20T04:17:56.290Z,10.16
2023-03-20T04:20:23.630Z,10.21
2023-03-20T04:22:50.891Z,10.19
2023-03-20T04:25:19.258Z,10.05
2023-03-20T04:27:46.833Z,10.27
2023-03-20T04:30:15.615Z,10.10
2023-03-20T04:32:42.990Z,10.10
2023-03-20T04:35:10.450Z,10.29
2023-03-20T04:37:37.724Z,10.36
2023-03-20T04:40:05.370Z,10.33
2023-03-20T04:42:32.691Z,10.33
2023-03-20T04:44:59.971Z,10.37
2023-03-20T04:47:28.569Z,10.32
2023-03-20T04:49:55.820Z,10.27
2023-03-20T04:52:23.092Z,10.24
2023-03-20T04:54:50.387Z,10.11
2023-03-20T04:57:17.836Z,10.06
2023-03-20T04:59:45.218Z,10.24
2023-03-20T05:02:14.879Z,10.28
2023-03-20T05:04:43.730Z,10.27
2023-03-20T05:07:11.288Z,10.17
2023-03-20T05:09:38.557Z,10.03
2023-03-20T05:12:06.203Z,10.08
2023-03-20T05:14:33.494Z,10.06
2023-03-20T05:17:01.262Z,10.16
2023-03-20T05:19:28.581Z,10.24
2023-03-20T05:21:57.152Z,10.27
2023-03-20T05:24:24.393Z,10.06
2023-03-20T05:26:51.802Z,10.09
2023-03-20T05:29:19.087Z,10.11
2023-03-20T05:31:46.386Z,10.08
2023-03-20T05:34:13.723Z,10.09
2023-03-20T05:36:41.343Z,10.13
2023-03-20T05:39:09.922Z,10.06
2023-03-20T05:41:37.333Z,9.98
2023-03-20T05:44:04.608Z,10.05
2023-03-20T05:46:31.910Z,10.13
2023-03-20T05:48:59.253Z,10.14
2023-03-20T05:51:27.092Z,10.10
2023-03-20T05:53:54.367Z,10.15
2023-03-20T05:56:23.063Z,10.30
2023-03-20T05:58:51.936Z,10.28
2023-03-20T06:01:21.496Z,10.34
2023-03-20T06:03:48.894Z,10.39
2023-03-20T06:06:16.493Z,10.32
2023-03-20T06:08:44.610Z,10.41
2023-03-20T06:11:12.190Z,10.48
2023-03-20T06:13:40.825Z,10.53
2023-03-20T06:16:08.932Z,10.55
2023-03-20T06:18:36.280Z,10.63
2023-03-20T06:21:05.806Z,10.61
2023-03-20T06:23:33.125Z,10.73
2023-03-20T06:26:00.405Z,10.79
2023-03-20T06:28:27.661Z,10.96
2023-03-20T06:30:57.178Z,11.07
2023-03-20T06:33:24.783Z,11.14
2023-03-20T06:35:52.882Z,11.34
2023-03-20T06:38:20.393Z,11.52
2023-03-20T06:40:47.705Z,11.63
2023-03-20T06:43:14.965Z,11.79
2023-03-20T06:45:42.355Z,11.83
2023-03-20T06:48:11.174Z,11.85
2023-03-20T06:50:38.449Z,11.87
2023-03-20T06:53:06.662Z,11.79
2023-03-20T06:55:34.099Z,11.95
2023-03-20T06:58:01.452Z,12.14
2023-03-20T07:00:29.687Z,12.37
2023-03-20T07:02:56.956Z,12.53
2023-03-20T07:05:26.131Z,12.84
2023-03-20T07:07:53.797Z,12.97
2023-03-20T07:10:21.132Z,13.13
2023-03-20T07:12:48.427Z,13.00
2023-03-20T07:15:15.791Z,13.20
2023-03-20T07:17:43.299Z,13.30
2023-03-20T07:20:11.331Z,13.55
2023-03-20T07:22:41.521Z,13.53
2023-03-20T07:25:09.555Z,13.38
2023-03-20T07:27:37.685Z,13.33
2023-03-20T07:30:06.112Z,13.45
2023-03-20T07:32:33.499Z,13.80
2023-03-20T07:35:00.959Z,14.02
2023-03-20T07:37:28.213Z,14.04
2023-03-20T07:39:56.781Z,13.96
2023-03-20T07:42:24.039Z,13.87
2023-03-20T07:44:51.534Z,13.76
2023-03-20T07:47:18.872Z,13.78
2023-03-20T07:49:46.682Z,13.66
2023-03-20T07:52:13.951Z,13.78
2023-03-20T07:54:41.228Z,13.73
2023-03-20T07:57:09.841Z,13.65
2023-03-20T07:59:37.120Z,13.61
2023-03-20T08:02:04.429Z,13.64
2023-03-20T08:04:31.770Z,13.52
2023-03-20T08:06:59.229Z,13.32
2023-03-20T08:09:26.979Z,13.15
2023-03-20T08:11:54.233Z,13.19
2023-03-20T08:14:22.913Z,13.20
2023-03-20T08:17:02.343Z,13.01
2023-03-20T08:19:38.250Z,13.02
2023-03-20T08:22:05.570Z,12.97
2023-03-20T08:24:32.954Z,12.96
2023-03-20T08:27:00.284Z,12.99
2023-03-20T08:29:28.947Z,13.07
2023-03-20T08:31:57.725Z,13.18
2023-03-20T08:34:26.318Z,13.03
2023-03-20T08:36:53.687Z,12.86
2023-03-20T08:39:21.771Z,12.94
2023-03-20T08:41:49.072Z,12.98
2023-03-20T08:44:16.399Z,13.10
2023-03-20T08:46:46.435Z,13.26
2023-03-20T08:49:13.802Z,13.10
2023-03-20T08:51:41.250Z,13.21
2023-03-20T08:54:08.526Z,13.42
2023-03-20T08:56:35.826Z,13.52
2023-03-20T08:59:03.693Z,13.58
2023-03-20T09:01:47.991Z,13.62
2023-03-20T09:04:17.247Z,13.77
2023-03-20T09:06:44.499Z,13.79
2023-03-20T09:09:15.655Z,13.87
2023-03-20T09:11:42.930Z,13.90
2023-03-20T09:14:10.584Z,14.09
2023-03-20T09:16:38.018Z,14.06
2023-03-20T09:19:06.054Z,14.40
2023-03-20T09:21:34.734Z,14.61
2023-03-20T09:24:02.049Z,14.71
2023-03-20T09:26:29.322Z,14.62
2023-03-20T09:28:56.603Z,14.39
2023-03-20T09:31:23.998Z,14.41
2023-03-20T09:33:51.290Z,14.36
2023-03-20T09:36:18.681Z,14.32
2023-03-20T09:38:47.444Z,14.55
2023-03-20T09:41:18.902Z,14.50
2023-03-20T09:43:52.270Z,14.57
2023-03-20T09:46:24.722Z,14.69
2023-03-20T09:48:55.860Z,14.82
2023-03-20T09:51:29.495Z,14.68
2023-03-20T09:54:01.462Z,14.78
2023-03-20T09:56:30.557Z,14.86
2023-03-20T09:58:58.860Z,15.03
2023-03-20T10:01:28.189Z,14.76
2023-03-20T10:03:57.554Z,14.95
2023-03-20T10:06:25.486Z,14.85
2023-03-20T10:08:52.994Z,15.15
2023-03-20T10:11:32.140Z,15.28
2023-03-20T10:14:02.988Z,15.27
2023-03-20T10:16:38.108Z,15.38
2023-03-20T10:19:08.804Z,15.71
2023-03-20T10:21:40.579Z,16.11
2023-03-20T10:24:15.793Z,16.03
2023-03-20T10:26:44.593Z,16.13
2023-03-20T10:29:17.720Z,16.21
2023-03-20T10:31:48.410Z,16.18
2023-03-20T10:34:25.831Z,16.55
2023-03-20T10:36:57.795Z,16.54
2023-03-20T10:39:33.853Z,15.73
2023-03-20T10:42:04.152Z,16.00
2023-03-20T10:44:33.901Z,16.00
2023-03-20T10:47:02.505Z,16.05
2023-03-20T10:49:32.307Z,16.12
2023-03-20T10:52:02.118Z,15.97
2023-03-20T10:54:39.162Z,16.09
2023-03-20T10:57:13.478Z,15.63
2023-03-20T10:59:43.216Z,15.61
2023-03-20T11:02:12.211Z,15.48
2023-03-20T11:04:39.556Z,15.02
2023-03-20T11:07:13.860Z,14.94
2023-03-20T11:09:41.599Z,14.90
2023-03-20T11:12:16.491Z,14.97
2023-03-20T11:14:43.808Z,15.25
2023-03-20T11:17:11.652Z,15.53
2023-03-20T11:19:40.118Z,15.54
2023-03-20T11:22:09.030Z,15.81
2023-03-20T11:24:37.931Z,16.00
2023-03-20T11:27:06.441Z,15.86
2023-03-20T11:29:36.079Z,15.95
2023-03-20T11:32:08.255Z,15.52
2023-03-20T11:34:37.785Z,15.68
2023-03-20T11:37:10.462Z,15.59
2023-03-20T11:39:39.968Z,15.41
2023-03-20T11:42:22.385Z,15.33
2023-03-20T11:44:57.389Z,15.52
2023-03-20T11:47:27.302Z,15.24
2023-03-20T11:49:56.023Z,15.58
2023-03-20T11:52:25.914Z,15.68
2023-03-20T11:54:55.319Z,15.79
2023-03-20T11:57:31.732Z,15.63
2023-03-20T12:00:02.044Z,15.48
2023-03-20T12:02:29.510Z,15.22
2023-03-20T12:05:00.363Z,15.53
2023-03-20T12:07:30.610Z,15.55
2023-03-20T12:09:59.259Z,15.58
2023-03-20T12:12:35.151Z,15.69
2023-03-20T12:15:07.852Z,15.18
2023-03-20T12:17:39.292Z,15.17
2023-03-20T12:20:13.050Z,15.23
2023-03-20T12:22:43.837Z,15.29
2023-03-20T12:25:18.931Z,15.28
2023-03-20T12:27:48.931Z,15.35
2023-03-20T12:30:20.900Z,15.35
2023-03-20T12:32:54.225Z,15.21
2023-03-20T12:35:26.068Z,15.31
2023-03-20T12:37:53.339Z,14.99
2023-03-20T12:40:27.850Z,15.15
2023-03-20T12:43:03.000Z,14.80
2023-03-20T12:45:33.920Z,14.67
2023-03-20T12:48:06.145Z,14.69
2023-03-20T12:50:35.662Z,14.80
2023-03-20T12:53:20.816Z,14.49
2023-03-20T12:55:56.517Z,14.68
2023-03-20T12:58:28.087Z,15.05
2023-03-20T13:01:01.472Z,14.39
2023-03-20T13:03:38.507Z,14.74
2023-03-20T13:06:10.780Z,15.04
2023-03-20T13:09:01.382Z,15.26
2023-03-20T13:11:32.033Z,15.37
2023-03-20T13:14:02.473Z,15.51
2023-03-20T13:16:38.326Z,15.36
2023-03-20T13:19:08.507Z,15.56
2023-03-20T13:21:40.295Z,15.19
2023-03-20T13:24:23.438Z,15.11
2023-03-20T13:26:54.468Z,15.07
2023-03-20T13:29:28.588Z,15.26
2023-03-20T13:32:04.422Z,15.18
2023-03-20T13:34:39.197Z,15.17
2023-03-20T13:37:25.856Z,15.23
2023-03-20T13:39:59.792Z,15.22
2023-03-20T13:42:30.589Z,15.11
2023-03-20T13:45:05.842Z,15.08
2023-03-20T13:47:37.141Z,15.02
2023-03-20T13:50:25.103Z,14.89
2023-03-20T13:52:57.352Z,14.91
2023-03-20T13:55:27.993Z,14.97
2023-03-20T13:58:04.525Z,14.96
2023-03-20T14:00:34.407Z,14.68
2023-03-20T14:03:13.970Z,14.56
2023-03-20T14:05:42.698Z,14.41
2023-03-20T14:08:22.230Z,14.47
2023-03-20T14:10:49.613Z,14.31
2023-03-20T14:13:19.603Z,14.42
2023-03-20T14:15:50.163Z,14.35
2023-03-20T14:18:19.421Z,14.38
2023-03-20T14:20:53.227Z,14.69
2023-03-20T14:23:21.700Z,14.51
2023-03-20T14:25:49.503Z,14.31
2023-03-20T14:28:28.203Z,14.39
2023-03-20T14:31:10.482Z,14.15
2023-03-20T14:33:42.792Z,14.14
2023-03-20T14:36:19.300Z,14.07
2023-03-20T14:38:54.295Z,13.91
2023-03-20T14:41:27.282Z,14.00
2023-03-20T14:44:01.954Z,13.98
2023-03-20T14:46:35.258Z,13.83
2023-03-20T14:49:16.828Z,13.78
2023-03-20T14:51:45.920Z,13.50
2023-03-20T14:54:27.124Z,13.65
2023-03-20T14:56:54.667Z,13.53
2023-03-20T14:59:23.328Z,13.55
2023-03-20T15:01:57.295Z,13.52
2023-03-20T15:04:29.261Z,13.57
2023-03-20T15:06:58.777Z,13.55
2023-03-20T15:09:27.900Z,13.63
2023-03-20T15:11:59.564Z,13.44
2023-03-20T15:14:28.338Z,12.90
2023-03-20T15:16:59.282Z,12.88
2023-03-20T15:19:28.620Z,12.70
2023-03-20T15:21:56.528Z,12.58
2023-03-20T15:24:24.362Z,12.66
2023-03-20T15:26:53.355Z,12.75
2023-03-20T15:29:21.105Z,12.54
2023-03-20T15:32:06.469Z,12.44
2023-03-20T15:34:41.837Z,12.56
2023-03-20T15:37:13.045Z,12.66
2023-03-20T15:39:43.251Z,12.66
2023-03-20T15:42:13.381Z,12.69
2023-03-20T15:44:41.642Z,12.70
2023-03-20T15:47:12.845Z,12.64
2023-03-20T15:49:42.433Z,12.84
2023-03-20T15:52:23.105Z,12.88
2023-03-20T15:54:50.602Z,12.92
2023-03-20T15:57:21.194Z,12.99
2023-03-20T15:59:48.503Z,13.20
2023-03-20T16:02:19.590Z,12.89
2023-03-20T16:04:49.811Z,12.56
2023-03-20T16:07:21.188Z,12.52
2023-03-20T16:09:50.069Z,12.73
2023-03-20T16:12:18.346Z,12.76
2023-03-20T16:14:46.856Z,12.95
2023-03-20T16:17:14.566Z,13.05
2023-03-20T16:19:42.086Z,12.91
2023-03-20T16:22:15.968Z,12.82
2023-03-20T16:24:46.399Z,12.86
2023-03-20T16:27:15.554Z,12.92
2023-03-20T16:29:44.144Z,13.03
2023-03-20T16:32:19.358Z,13.06
2023-03-20T16:34:49.660Z,12.92
2023-03-20T16:37:25.501Z,12.90
2023-03-20T16:40:03.485Z,13.03
2023-03-20T16:42:31.057Z,12.85
2023-03-20T16:44:59.381Z,12.84
2023-03-20T16:47:34.640Z,12.78
2023-03-20T16:50:12.941Z,12.78
2023-03-20T16:52:42.432Z,12.70
2023-03-20T16:55:14.594Z,12.67
2023-03-20T16:57:44.574Z,12.70
2023-03-20T17:00:20.674Z,12.72
2023-03-20T17:02:50.602Z,12.72
2023-03-20T17:05:19.294Z,12.74
2023-03-20T17:07:50.587Z,12.77
2023-03-20T17:10:20.131Z,12.76
2023-03-20T17:12:48.474Z,12.64
2023-03-20T17:15:16.636Z,12.74
2023-03-20T17:17:44.488Z,12.80
2023-03-20T17:20:18.241Z,12.69
2023-03-20T17:22:45.894Z,12.61
2023-03-20T17:25:14.816Z,12.53
2023-03-20T17:27:42.169Z,12.50
2023-03-20T17:30:16.321Z,12.45
2023-03-20T17:32:43.649Z,12.52
2023-03-20T17:35:11.390Z,12.44
2023-03-20T17:37:38.753Z,12.43
2023-03-20T17:40:06.690Z,12.54
2023-03-20T17:42:35.317Z,12.51
2023-03-20T17:45:03.456Z,12.47
2023-03-20T17:47:31.352Z,12.50
2023-03-20T17:49:58.902Z,12.48
2023-03-20T17:52:27.319Z,12.34
2023-03-20T17:54:54.908Z,12.32
2023-03-20T17:57:23.299Z,12.50
2023-03-20T17:59:51.871Z,12.29
2023-03-20T18:02:19.618Z,12.30
2023-03-20T18:04:47.339Z,12.21
2023-03-20T18:07:15.062Z,12.28
2023-03-20T18:09:43.003Z,12.38
2023-03-20T18:12:11.056Z,12.39
2023-03-20T18:14:39.115Z,12.06
2023-03-20T18:17:08.039Z,12.12
2023-03-20T18:19:35.399Z,12.04
2023-03-20T18:22:03.631Z,12.01
2023-03-20T18:24:30.953Z,12.10
2023-03-20T18:26:59.027Z,11.97
2023-03-20T18:29:26.458Z,12.02
2023-03-20T18:31:53.837Z,11.75
2023-03-20T18:34:22.733Z,11.69
2023-03-20T18:36:50.077Z,11.80
2023-03-20T18:39:18.378Z,11.73
2023-03-20T18:41:45.691Z,11.82
2023-03-20T18:44:13.244Z,11.65
2023-03-20T18:46:41.108Z,11.73
2023-03-20T18:49:11.144Z,11.58
2023-03-20T18:51:39.704Z,11.64
2023-03-20T18:54:06.973Z,11.67
2023-03-20T18:56:36.860Z,11.38
2023-03-20T18:59:06.431Z,11.43
2023-03-20T19:01:34.171Z,11.78
2023-03-20T19:04:01.654Z,11.87
2023-03-20T19:06:29.964Z,11.76
2023-03-20T19:08:58.719Z,11.81
2023-03-20T19:11:26.272Z,11.86
2023-03-20T19:13:54.340Z,11.95
2023-03-20T19:16:26.644Z,11.82
2023-03-20T19:18:54.148Z,11.82
2023-03-20T19:21:25.986Z,11.83
2023-03-20T19:23:54.021Z,11.80
2023-03-20T19:26:24.435Z,11.86
2023-03-20T19:28:51.745Z,11.79
2023-03-20T19:31:19.448Z,11.83
2023-03-20T19:33:46.735Z,11.81
2023-03-20T19:36:22.096Z,11.82
2023-03-20T19:38:49.409Z,11.69
2023-03-20T19:41:16.702Z,11.75
2023-03-20T19:43:52.367Z,11.79
2023-03-20T19:46:38.245Z,11.66
2023-03-20T19:49:07.014Z,11.71
2023-03-20T19:51:34.383Z,11.63
2023-03-20T19:54:02.017Z,11.61
2023-03-20T19:56:29.314Z,11.60
2023-03-20T19:58:57.902Z,11.67
2023-03-20T20:01:25.681Z,11.56
2023-03-20T20:03:54.928Z,11.55
2023-03-20T20:06:29.503Z,11.30
2023-03-20T20:08:58.536Z,11.23
2023-03-20T20:11:26.022Z,11.18
2023-03-20T20:14:10.301Z,10.95
2023-03-20T20:16:42.845Z,10.85
2023-03-20T20:19:10.520Z,10.78
2023-03-20T20:24:25.376Z,10.64
2023-03-20T20:26:59.684Z,10.45
2023-03-20T20:29:34.537Z,10.36
2023-03-20T20:32:03.240Z,10.27
2023-03-20T20:40:06.751Z,10.06
2023-03-20T20:42:34.114Z,10.12
2023-03-20T20:45:01.403Z,10.09
2023-03-20T20:47:30.125Z,10.03
2023-03-20T20:49:57.762Z,10.01
2023-03-20T20:52:25.119Z,10.12
2023-03-20T20:54:52.408Z,10.14
2023-03-20T20:57:19.657Z,10.14
2023-03-20T20:59:47.360Z,10.30
2023-03-20T21:02:17.290Z,10.21
2023-03-20T21:04:46.201Z,10.04
2023-03-20T21:07:14.002Z,10.10
2023-03-20T21:09:41.814Z,10.18
2023-03-20T21:12:26.443Z,10.27
2023-03-20T21:14:58.742Z,10.28
2023-03-20T21:17:26.552Z,10.25
2023-03-20T21:19:55.659Z,10.20
2023-03-20T21:22:23.495Z,10.38
2023-03-20T21:24:52.029Z,10.16
2023-03-20T21:27:21.634Z,10.16
2023-03-20T21:29:50.038Z,10.32
2023-03-20T21:32:19.016Z,10.36
2023-03-20T21:34:46.542Z,10.54
2023-03-20T21:38:17.865Z,10.59
2023-03-20T21:40:04.100Z,10.59
2023-03-20T21:42:31.427Z,10.59
2023-03-20T21:45:53.449Z,10.71
2023-03-20T21:51:02.927Z,10.76
2023-03-20T21:54:20.773Z,10.57
2023-03-20T21:56:50.583Z,10.51
2023-03-20T22:02:05.886Z,10.67
2023-03-20T22:07:54.127Z,10.65
2023-03-20T22:13:58.785Z,10.68
2023-03-20T22:16:31.258Z,10.69
2023-03-20T22:25:04.807Z,10.54
2023-03-20T22:30:28.883Z,10.65
2023-03-20T22:36:16.311Z,10.68
2023-03-20T22:41:49.315Z,10.65
2023-03-20T22:44:33.949Z,10.64
2023-03-20T22:46:44.799Z,10.66
2023-03-20T22:49:12.840Z,10.70
2023-03-20T22:51:50.723Z,10.68
2023-03-20T22:54:27.736Z,10.75
2023-03-20T22:56:55.465Z,10.75
2023-03-20T22:59:24.092Z,10.79
2023-03-20T23:01:51.529Z,10.72
2023-03-20T23:04:18.878Z,10.79
2023-03-20T23:06:46.357Z,10.79
2023-03-20T23:09:15.729Z,10.65
2023-03-20T23:11:43.368Z,10.64
2023-03-20T23:14:20.527Z,10.70
2023-03-20T23:16:50.753Z,10.69
2023-03-20T23:19:18.151Z,10.77
2023-03-20T23:21:45.434Z,10.71
2023-03-20T23:24:12.695Z,10.84
2023-03-20T23:26:40.069Z,10.81
2023-03-20T23:29:07.669Z,10.75
2023-03-20T23:31:34.949Z,10.83
2023-03-20T23:34:03.582Z,10.90
2023-03-20T23:36:38.091Z,10.86
2023-03-20T23:39:05.748Z,10.91
2023-03-20T23:42:01.860Z,10.91
2023-03-20T23:44:20.355Z,10.93
2023-03-20T23:46:48.334Z,10.90
2023-03-20T23:49:17.321Z,10.90
2023-03-20T23:51:44.802Z,10.84
2023-03-20T23:54:12.653Z,10.78
2023-03-20T23:56:39.948Z,10.73
2023-03-20T23:59:18.701Z,10.78
